首页
METAR-TAF:

METAR-TAF

机场 :

Rock Springs - Sweetwater County Airport

Rock Springs, 怀俄明州, 美国

纬度: 41-35-39N, 经度: 109-03-55W, 海拔: 2060米

当前天气观测

该预报发布于52分钟前的22:54 UTC
静风
温度 29°C
湿度 12%
气压 1025 hPa
能見度: 16.1公里
少量云层高于12000英尺

METAR: KRKS 212254Z AUTO 00000KT 10SM FEW120 29/M03 A3026 RMK AO2 SLP152 T02941028

时间: 17:46 (23:46 UTC)

预报

该预报发布于9分钟前的23:37 UTC
预报有效从22日的 00点(UTC)到 22日的 24点(UTC)
风速5节,风向多变
能見度: 10公里
少量云层高于12000英尺
从 22日的 0400点(UTC)
风速12节,风向,有时为19节阵风
能見度: 10公里
散云层高于12000英尺
从 22日的 0900点(UTC)
风速11节,风向
能見度: 10公里
少量云层高于12000英尺
从 22日的 1800点(UTC)
风速5节,风向多变
能見度: 10公里
少量云层高于12000英尺

TAF: KRKS 212337Z 2200/2224 VRB05KT P6SM FEW120 FM220400 08012G19KT P6SM SCT120 FM220900 08011KT P6SM FEW120 FM221800 VRB05KT P6SM FEW120

超过4000个机场的气象观测和天气预报(METAR&TAF报告)。

可查询的气象台以黄色和红色小点在地图上表示。

将鼠标移到小点上方,可查看气象台名称。

然后点击查看天气观测和预报。

如需切换地图:点击带黑十字的绿色按钮放大地图;点击带横线的绿色按钮缩小地图;或者点击绿色箭头查看邻近地区的地图。


METAR-TAF: